createdAt,value
2022-08-05T00:00:46.388Z,0.00
2022-08-05T00:01:48.835Z,0.00
2022-08-05T00:02:43.903Z,0.00
2022-08-05T00:03:42.169Z,0.00
2022-08-05T00:04:41.991Z,0.00
2022-08-05T00:06:06.450Z,0.00
2022-08-05T00:06:41.892Z,0.00
2022-08-05T00:08:00.936Z,0.00
2022-08-05T00:08:41.880Z,0.00
2022-08-05T00:09:42.102Z,0.00
2022-08-05T00:10:41.867Z,0.00
2022-08-05T00:11:48.276Z,0.00
2022-08-05T00:12:48.513Z,0.00
2022-08-05T00:13:42.429Z,0.00
2022-08-05T00:14:41.881Z,0.00
2022-08-05T00:15:56.310Z,0.00
2022-08-05T00:16:53.634Z,0.00
2022-08-05T00:17:42.600Z,0.00
2022-08-05T00:18:42.168Z,0.00
2022-08-05T00:19:45.640Z,0.00
2022-08-05T00:20:41.802Z,0.00
2022-08-05T00:21:42.652Z,0.00
2022-08-05T00:22:47.112Z,0.00
2022-08-05T00:23:46.288Z,0.00
2022-08-05T00:24:42.373Z,0.00
2022-08-05T00:25:45.506Z,0.00
2022-08-05T00:26:46.718Z,0.00
2022-08-05T00:27:42.886Z,0.00
2022-08-05T00:28:41.749Z,0.00
2022-08-05T00:29:41.730Z,0.00
2022-08-05T00:30:44.123Z,0.00
2022-08-05T00:32:10.162Z,0.00
2022-08-05T00:32:41.728Z,0.00
2022-08-05T00:34:55.422Z,0.00
2022-08-05T00:34:55.858Z,0.00
2022-08-05T00:36:15.171Z,0.00
2022-08-05T00:37:11.629Z,0.00
2022-08-05T00:37:53.399Z,0.00
2022-08-05T00:38:41.742Z,0.00
2022-08-05T00:39:57.224Z,0.00
2022-08-05T00:40:41.660Z,0.00
2022-08-05T00:41:51.823Z,0.00
2022-08-05T00:42:41.663Z,0.00
2022-08-05T00:43:47.208Z,0.00
2022-08-05T00:44:41.929Z,0.00
2022-08-05T00:45:43.785Z,0.00
2022-08-05T00:46:43.369Z,0.00
2022-08-05T00:47:56.585Z,0.00
2022-08-05T00:48:50.264Z,0.00
2022-08-05T00:49:44.699Z,0.00
2022-08-05T00:50:44.040Z,0.00
2022-08-05T00:51:51.628Z,0.00
2022-08-05T00:52:41.581Z,0.00
2022-08-05T00:54:01.296Z,0.00
2022-08-05T00:54:41.576Z,0.00
2022-08-05T00:55:42.926Z,0.00
2022-08-05T00:56:41.539Z,0.00
2022-08-05T00:57:55.717Z,0.00
2022-08-05T00:58:42.522Z,0.00
2022-08-05T00:59:44.406Z,0.00
2022-08-05T01:00:42.025Z,0.00
2022-08-05T01:01:48.091Z,0.00
2022-08-05T01:02:41.510Z,0.00
2022-08-05T01:03:41.528Z,0.00
2022-08-05T01:04:42.213Z,0.00
2022-08-05T01:05:41.497Z,0.00
2022-08-05T01:06:41.496Z,0.00
2022-08-05T01:08:29.790Z,0.00
2022-08-05T01:08:44.334Z,0.00
2022-08-05T01:09:41.481Z,0.00
2022-08-05T01:10:41.458Z,0.00
2022-08-05T01:11:42.470Z,0.00
2022-08-05T01:12:41.447Z,0.00
2022-08-05T01:13:57.835Z,0.00
2022-08-05T01:14:41.443Z,0.00
2022-08-05T01:15:41.472Z,0.00
2022-08-05T01:16:41.417Z,0.00
2022-08-05T01:17:44.028Z,0.00
2022-08-05T01:18:41.408Z,0.00
2022-08-05T01:20:01.941Z,0.00
2022-08-05T01:20:41.388Z,0.00
2022-08-05T01:21:41.387Z,0.00
2022-08-05T01:22:41.369Z,0.00
2022-08-05T01:23:41.375Z,0.00
2022-08-05T01:24:41.400Z,0.00
2022-08-05T01:25:41.733Z,0.00
2022-08-05T01:26:41.337Z,0.00
2022-08-05T01:27:50.661Z,0.00
2022-08-05T01:28:41.919Z,0.00
2022-08-05T01:29:41.347Z,0.00
2022-08-05T01:30:52.440Z,0.00
2022-08-05T01:31:44.655Z,0.00
2022-08-05T01:32:41.615Z,0.00
2022-08-05T01:33:41.298Z,0.00
2022-08-05T01:34:41.308Z,0.00
2022-08-05T01:35:51.940Z,0.00
2022-08-05T01:36:42.346Z,0.00
2022-08-05T01:37:44.562Z,0.00
2022-08-05T01:38:41.267Z,0.00
2022-08-05T01:39:46.472Z,0.00
2022-08-05T01:40:41.269Z,0.00
2022-08-05T01:41:44.495Z,0.00
2022-08-05T01:42:41.236Z,0.00
2022-08-05T01:43:41.856Z,0.00
2022-08-05T01:44:41.236Z,0.00
2022-08-05T01:45:43.183Z,0.00
2022-08-05T01:46:42.716Z,0.00
2022-08-05T01:47:43.484Z,0.00
2022-08-05T01:48:42.004Z,0.00
2022-08-05T01:50:00.145Z,0.00
2022-08-05T01:50:41.195Z,0.00
2022-08-05T01:51:41.218Z,0.00
2022-08-05T01:52:41.172Z,0.00
2022-08-05T01:53:57.582Z,0.00
2022-08-05T01:54:45.773Z,0.00
2022-08-05T01:55:41.207Z,0.00
2022-08-05T01:58:09.941Z,0.00
2022-08-05T01:58:11.345Z,0.00
2022-08-05T01:58:45.443Z,0.00
2022-08-05T01:59:41.247Z,0.00
2022-08-05T02:00:41.116Z,0.00
2022-08-05T02:01:41.182Z,0.00
2022-08-05T02:02:46.529Z,0.00
2022-08-05T02:03:41.096Z,0.00
2022-08-05T02:04:41.103Z,0.00
2022-08-05T02:05:42.666Z,0.00
2022-08-05T02:06:41.083Z,0.00
2022-08-05T02:07:41.596Z,0.00
2022-08-05T02:08:54.856Z,0.00
2022-08-05T02:09:41.735Z,0.00
2022-08-05T02:10:41.052Z,0.00
2022-08-05T02:11:42.156Z,0.00
2022-08-05T02:12:41.037Z,0.00
2022-08-05T02:13:53.413Z,0.00
2022-08-05T02:14:42.035Z,0.00
2022-08-05T02:15:41.015Z,0.00
2022-08-05T02:16:41.015Z,0.00
2022-08-05T02:18:31.171Z,0.00
2022-08-05T02:18:41.946Z,0.00
2022-08-05T02:19:47.223Z,0.00
2022-08-05T02:20:40.984Z,0.00
2022-08-05T02:21:43.313Z,0.00
2022-08-05T02:22:40.965Z,0.00
2022-08-05T02:23:41.686Z,0.00
2022-08-05T02:24:41.015Z,0.00
2022-08-05T02:25:50.003Z,0.00
2022-08-05T02:26:53.749Z,0.00
2022-08-05T02:27:59.363Z,0.00
2022-08-05T02:28:45.794Z,0.00
2022-08-05T02:29:58.897Z,0.00
2022-08-05T02:30:51.773Z,0.00
2022-08-05T02:31:40.914Z,0.00
2022-08-05T02:32:41.103Z,0.00
2022-08-05T02:33:40.904Z,0.00
2022-08-05T02:34:40.884Z,0.00
2022-08-05T02:35:50.992Z,0.00
2022-08-05T02:36:40.884Z,0.00
2022-08-05T02:37:41.365Z,0.00
2022-08-05T02:38:40.872Z,0.00
2022-08-05T02:39:41.443Z,0.00
2022-08-05T02:40:41.502Z,0.00
2022-08-05T02:41:57.895Z,0.00
2022-08-05T02:42:41.164Z,0.00
2022-08-05T02:44:02.275Z,0.00
2022-08-05T02:44:40.884Z,0.00
2022-08-05T02:45:52.129Z,0.00
2022-08-05T02:46:53.240Z,0.00
2022-08-05T02:48:06.656Z,0.00
2022-08-05T02:48:40.793Z,0.00
2022-08-05T02:49:40.932Z,0.00
2022-08-05T02:50:43.591Z,0.00
2022-08-05T02:52:01.231Z,0.00
2022-08-05T02:52:41.083Z,0.00
2022-08-05T02:53:41.134Z,0.00
2022-08-05T02:54:41.302Z,0.00
2022-08-05T02:55:54.814Z,0.00
2022-08-05T02:56:40.742Z,0.00
2022-08-05T02:58:10.465Z,0.00
2022-08-05T02:58:43.638Z,0.00
2022-08-05T02:59:47.750Z,0.00
2022-08-05T03:00:41.542Z,0.00
2022-08-05T03:01:40.726Z,0.00
2022-08-05T03:02:40.751Z,0.00
2022-08-05T03:04:03.449Z,0.00
2022-08-05T03:04:41.624Z,0.00
2022-08-05T03:06:54.059Z,0.00
2022-08-05T03:06:55.892Z,0.00
2022-08-05T03:08:07.436Z,0.00
2022-08-05T03:08:42.570Z,0.00
2022-08-05T03:09:43.976Z,0.00
2022-08-05T03:10:40.661Z,0.00
2022-08-05T03:11:54.843Z,0.00
2022-08-05T03:12:41.197Z,0.00
2022-08-05T03:13:51.866Z,0.00
2022-08-05T03:14:45.977Z,0.00
2022-08-05T03:15:40.830Z,0.00
2022-08-05T03:16:40.631Z,0.00
2022-08-05T03:17:41.940Z,0.00
2022-08-05T03:18:42.178Z,0.00
2022-08-05T03:19:41.860Z,0.00
2022-08-05T03:20:48.647Z,0.00
2022-08-05T03:21:48.869Z,0.00
2022-08-05T03:22:44.174Z,0.00
2022-08-05T03:23:41.482Z,0.00
2022-08-05T03:24:40.561Z,0.00
2022-08-05T03:26:04.547Z,0.00
2022-08-05T03:26:41.697Z,0.00
2022-08-05T03:27:59.744Z,0.00
2022-08-05T03:28:40.527Z,0.00
2022-08-05T03:29:45.782Z,0.00
2022-08-05T03:30:41.086Z,4.00
2022-08-05T03:31:57.393Z,4.00
2022-08-05T03:32:40.500Z,1.00
2022-08-05T03:33:52.732Z,0.00
2022-08-05T03:34:40.490Z,1.00
2022-08-05T03:35:41.856Z,1.00
2022-08-05T03:36:40.513Z,1.00
2022-08-05T03:37:46.218Z,9.00
2022-08-05T03:38:40.474Z,9.00
2022-08-05T03:39:57.673Z,5.00
2022-08-05T03:40:40.814Z,1.00
2022-08-05T03:41:45.367Z,5.00
2022-08-05T03:42:41.800Z,5.00
2022-08-05T03:44:09.202Z,5.00
2022-08-05T03:44:40.470Z,5.00
2022-08-05T03:45:57.951Z,5.00
2022-08-05T03:46:40.409Z,5.00
2022-08-05T03:47:41.323Z,5.00
2022-08-05T03:48:40.400Z,1.00
2022-08-05T03:49:51.975Z,9.00
2022-08-05T03:50:40.378Z,9.00
2022-08-05T03:52:37.481Z,9.00
2022-08-05T03:55:00.262Z,9.00
2022-08-05T03:55:34.284Z,9.00
2022-08-05T03:55:51.364Z,9.00
2022-08-05T03:56:09.453Z,13.00
2022-08-05T03:56:41.321Z,13.00
2022-08-05T03:57:42.337Z,13.00
2022-08-05T03:58:41.161Z,20.00
2022-08-05T03:59:47.619Z,18.00
2022-08-05T04:00:42.084Z,18.00
2022-08-05T04:01:40.962Z,33.00
2022-08-05T04:02:57.915Z,35.00
2022-08-05T04:03:40.319Z,31.00
2022-08-05T04:04:41.219Z,35.00
2022-08-05T04:05:41.129Z,39.00
2022-08-05T04:06:47.327Z,35.00
2022-08-05T04:07:57.706Z,36.00
2022-08-05T04:08:40.308Z,36.00
2022-08-05T04:09:53.586Z,39.00
2022-08-05T04:10:40.238Z,33.00
2022-08-05T04:11:50.355Z,33.00
2022-08-05T04:13:51.097Z,0.00
2022-08-05T04:14:46.252Z,31.00
2022-08-05T04:16:03.254Z,31.00
2022-08-05T04:16:46.212Z,31.00
2022-08-05T04:17:57.119Z,27.00
2022-08-05T04:18:47.494Z,15.00
2022-08-05T04:19:46.262Z,29.00
2022-08-05T04:20:46.190Z,55.00
2022-08-05T04:22:09.812Z,61.00
2022-08-05T04:22:46.251Z,75.00
2022-08-05T04:24:05.321Z,81.00
2022-08-05T04:24:52.715Z,99.00
2022-08-05T04:25:57.276Z,123.00
2022-08-05T04:26:46.151Z,137.00
2022-08-05T04:27:56.849Z,169.00
2022-08-05T04:28:51.161Z,188.00
2022-08-05T04:29:46.121Z,182.00
2022-08-05T04:30:46.363Z,197.00
2022-08-05T04:31:46.976Z,214.00
2022-08-05T04:32:46.128Z,245.00
2022-08-05T04:34:17.662Z,261.00
2022-08-05T04:34:46.094Z,307.00
2022-08-05T04:36:16.154Z,378.00
2022-08-05T04:36:49.684Z,423.00
2022-08-05T04:38:01.590Z,471.00
2022-08-05T04:38:46.102Z,508.00
2022-08-05T04:39:46.829Z,607.00
2022-08-05T04:40:50.703Z,740.00
2022-08-05T04:41:48.262Z,995.00
2022-08-05T04:42:46.393Z,1175.00
2022-08-05T04:43:48.026Z,1083.00
2022-08-05T04:44:46.620Z,846.00
2022-08-05T04:45:48.737Z,671.00
2022-08-05T04:46:47.024Z,685.00
2022-08-05T04:47:47.361Z,845.00
2022-08-05T04:48:46.848Z,867.00
2022-08-05T04:50:01.331Z,954.00
2022-08-05T04:51:01.439Z,1209.00
2022-08-05T04:51:46.948Z,1369.00
2022-08-05T04:52:46.135Z,1432.00
2022-08-05T04:53:45.982Z,1472.00
2022-08-05T04:54:46.920Z,1461.00
2022-08-05T04:56:15.441Z,1401.00
2022-08-05T04:56:46.759Z,1446.00
2022-08-05T04:57:47.985Z,1285.00
2022-08-05T04:58:45.979Z,1262.00
2022-08-05T04:59:48.117Z,1348.00
2022-08-05T05:00:45.918Z,1421.00
2022-08-05T05:02:06.711Z,1433.00
2022-08-05T05:02:46.024Z,1411.00
2022-08-05T05:03:46.018Z,1423.00
2022-08-05T05:04:49.668Z,1404.00
2022-08-05T05:06:40.440Z,1151.00
2022-08-05T05:06:51.935Z,1175.00
2022-08-05T05:07:56.033Z,1285.00
2022-08-05T05:08:45.865Z,1328.00
2022-08-05T05:09:45.876Z,1378.00
2022-08-05T05:10:56.420Z,1367.00
2022-08-05T05:11:54.102Z,1329.00
2022-08-05T05:12:45.869Z,1341.00
2022-08-05T05:13:45.981Z,1215.00
2022-08-05T05:14:50.556Z,1170.00
2022-08-05T05:15:57.395Z,1067.00
2022-08-05T05:16:46.046Z,1025.00
2022-08-05T05:17:57.100Z,987.00
2022-08-05T05:19:08.950Z,947.00
2022-08-05T05:19:47.460Z,879.00
2022-08-05T05:20:46.020Z,859.00
2022-08-05T05:21:46.492Z,873.00
2022-08-05T05:22:45.777Z,897.00
2022-08-05T05:24:02.731Z,952.00
2022-08-05T05:24:57.213Z,1034.00
2022-08-05T05:25:45.754Z,1132.00
2022-08-05T05:26:46.595Z,1246.00
2022-08-05T05:27:48.645Z,1356.00
2022-08-05T05:28:45.745Z,1383.00
2022-08-05T05:30:04.369Z,1374.00
2022-08-05T05:30:49.548Z,1413.00
2022-08-05T05:31:46.273Z,1412.00
2022-08-05T05:32:45.705Z,1367.00
2022-08-05T05:33:59.607Z,1478.00
2022-08-05T05:34:45.695Z,1612.00
2022-08-05T05:35:45.683Z,1641.00
2022-08-05T05:36:45.829Z,1702.00
2022-08-05T05:37:45.656Z,1770.00
2022-08-05T05:38:45.674Z,1926.00
2022-08-05T05:39:45.759Z,2065.00
2022-08-05T05:40:49.790Z,2161.00
2022-08-05T05:41:45.784Z,2163.00
2022-08-05T05:42:47.000Z,2392.00
2022-08-05T05:43:57.015Z,2730.00
2022-08-05T05:44:45.895Z,2883.00
2022-08-05T05:45:48.296Z,3029.00
2022-08-05T05:46:45.604Z,3097.00
2022-08-05T05:48:07.047Z,3202.00
2022-08-05T05:48:46.034Z,3281.00
2022-08-05T05:49:45.943Z,3385.00
2022-08-05T05:50:45.645Z,3297.00
2022-08-05T05:51:50.414Z,3313.00
2022-08-05T05:52:46.610Z,4709.00
2022-08-05T05:53:46.000Z,6038.00
2022-08-05T05:54:51.102Z,5953.00
2022-08-05T05:55:51.590Z,4799.00
2022-08-05T05:56:45.655Z,4331.00
2022-08-05T05:57:52.250Z,4386.00
2022-08-05T05:58:45.603Z,4245.00
2022-08-05T05:59:45.523Z,3607.00
2022-08-05T06:00:45.842Z,3149.00
2022-08-05T06:01:57.374Z,2913.00
2022-08-05T06:02:45.504Z,2592.00
2022-08-05T06:04:00.855Z,2168.00
2022-08-05T06:04:49.327Z,1933.00
2022-08-05T06:05:45.492Z,1879.00
2022-08-05T06:06:47.416Z,1895.00
2022-08-05T06:07:57.938Z,1990.00
2022-08-05T06:08:49.173Z,2087.00
2022-08-05T06:10:01.705Z,2099.00
2022-08-05T06:10:49.206Z,1974.00
2022-08-05T06:11:59.718Z,1788.00
2022-08-05T06:12:45.492Z,1739.00
2022-08-05T06:13:50.513Z,1786.00
2022-08-05T06:14:45.421Z,1779.00
2022-08-05T06:16:30.697Z,1682.00
2022-08-05T06:16:45.621Z,1702.00
2022-08-05T06:17:53.182Z,1711.00
2022-08-05T06:18:45.419Z,1665.00
2022-08-05T06:19:45.418Z,1656.00
2022-08-05T06:20:47.747Z,1783.00
2022-08-05T06:21:49.768Z,2337.00
2022-08-05T06:22:45.360Z,3322.00
2022-08-05T06:23:45.380Z,4034.00
2022-08-05T06:24:48.089Z,3946.00
2022-08-05T06:26:00.115Z,4030.00
2022-08-05T06:26:51.518Z,3825.00
2022-08-05T06:28:10.500Z,4365.00
2022-08-05T06:28:45.391Z,4049.00
2022-08-05T06:29:49.361Z,4303.00
2022-08-05T06:30:45.320Z,4906.00
2022-08-05T06:31:45.420Z,6209.00
2022-08-05T06:32:45.291Z,6362.00
2022-08-05T06:34:07.880Z,6109.00
2022-08-05T06:34:45.281Z,6176.00
2022-08-05T06:36:07.112Z,6612.00
2022-08-05T06:36:57.637Z,7674.00
2022-08-05T06:37:57.915Z,9201.00
2022-08-05T06:38:47.184Z,9874.00
2022-08-05T06:39:46.153Z,10186.00
2022-08-05T06:40:45.358Z,9155.00
2022-08-05T06:41:45.578Z,8960.00
2022-08-05T06:42:45.337Z,9046.00
2022-08-05T06:43:59.786Z,9065.00
2022-08-05T06:44:45.219Z,8841.00
2022-08-05T06:46:03.675Z,8400.00
2022-08-05T06:46:45.230Z,7994.00
2022-08-05T06:48:44.067Z,7719.00
2022-08-05T06:48:55.665Z,7759.00
2022-08-05T06:50:00.146Z,7922.00
2022-08-05T06:50:45.358Z,8011.00
2022-08-05T06:51:45.474Z,8315.00
2022-08-05T06:52:45.538Z,8110.00
2022-08-05T06:53:45.397Z,7274.00
2022-08-05T06:54:45.169Z,6581.00
2022-08-05T06:55:46.025Z,5997.00
2022-08-05T06:56:54.976Z,5556.00
2022-08-05T06:58:03.730Z,5120.00
2022-08-05T06:58:45.139Z,5349.00
2022-08-05T06:59:48.548Z,6917.00
2022-08-05T07:00:45.184Z,8263.00
2022-08-05T07:01:45.146Z,7888.00
2022-08-05T07:02:45.098Z,8929.00
2022-08-05T07:03:45.850Z,8232.00
2022-08-05T07:04:45.117Z,5910.00
2022-08-05T07:05:46.379Z,5544.00
2022-08-05T07:06:45.106Z,5836.00
2022-08-05T07:07:45.194Z,7518.00
2022-08-05T07:08:48.050Z,8674.00
2022-08-05T07:09:45.097Z,8222.00
2022-08-05T07:10:52.832Z,7805.00
2022-08-05T07:11:51.396Z,9162.00
2022-08-05T07:12:48.996Z,10027.00
2022-08-05T07:13:59.511Z,12197.00
2022-08-05T07:14:45.498Z,11747.00
2022-08-05T07:16:01.236Z,11589.00
2022-08-05T07:18:00.162Z,11304.00
2022-08-05T07:18:01.082Z,11919.00
2022-08-05T07:18:47.886Z,11999.00
2022-08-05T07:20:44.985Z,17691.00
2022-08-05T07:22:00.025Z,16215.00
2022-08-05T07:22:45.763Z,11588.00
2022-08-05T07:23:49.096Z,14561.00
2022-08-05T07:24:53.549Z,13615.00
2022-08-05T07:25:56.407Z,12674.00
2022-08-05T07:26:44.948Z,11580.00
2022-08-05T07:27:57.742Z,10414.00
2022-08-05T07:28:46.885Z,10944.00
2022-08-05T07:30:25.451Z,9535.00
2022-08-05T07:30:48.768Z,8440.00
2022-08-05T07:31:54.694Z,7919.00
2022-08-05T07:32:44.906Z,7629.00
2022-08-05T07:33:45.456Z,7108.00
2022-08-05T07:34:44.987Z,6659.00
2022-08-05T07:36:03.520Z,6858.00
2022-08-05T07:36:44.925Z,7164.00
2022-08-05T07:37:45.052Z,6723.00
2022-08-05T07:38:45.596Z,6678.00
2022-08-05T07:40:27.095Z,7681.00
2022-08-05T07:40:44.921Z,8708.00
2022-08-05T07:42:13.074Z,8602.00
2022-08-05T07:42:45.097Z,8092.00
2022-08-05T07:43:44.837Z,7734.00
2022-08-05T07:44:46.328Z,7281.00
2022-08-05T07:45:57.767Z,7207.00
2022-08-05T07:46:45.940Z,6099.00
2022-08-05T07:47:45.454Z,5254.00
2022-08-05T07:49:02.985Z,5505.00
2022-08-05T07:49:54.568Z,6288.00
2022-08-05T07:50:44.786Z,7340.00
2022-08-05T07:51:53.520Z,8218.00
2022-08-05T07:52:45.155Z,7619.00
2022-08-05T07:53:50.515Z,7110.00
2022-08-05T07:54:49.060Z,6785.00
2022-08-05T07:56:05.477Z,6985.00
2022-08-05T07:57:14.603Z,6947.00
2022-08-05T07:57:55.282Z,6159.00
2022-08-05T07:58:57.456Z,4937.00
2022-08-05T07:59:46.926Z,3783.00
2022-08-05T08:00:44.763Z,3405.00
2022-08-05T08:01:52.204Z,3501.00
2022-08-05T08:03:13.945Z,3099.00
2022-08-05T08:03:45.152Z,2449.00
2022-08-05T08:04:44.945Z,2205.00
2022-08-05T08:05:49.656Z,2386.00
2022-08-05T08:06:44.663Z,3632.00
2022-08-05T08:07:59.459Z,4669.00
2022-08-05T08:08:44.662Z,4601.00
2022-08-05T08:09:44.666Z,4384.00
2022-08-05T08:10:44.724Z,4087.00
2022-08-05T08:11:47.774Z,4136.00
2022-08-05T08:12:49.511Z,3882.00
2022-08-05T08:13:49.544Z,3977.00
2022-08-05T08:14:46.527Z,2763.00
2022-08-05T08:16:35.167Z,2433.00
2022-08-05T08:16:51.223Z,2568.00
2022-08-05T08:17:49.754Z,2154.00
2022-08-05T08:18:50.247Z,2224.00
2022-08-05T08:20:21.206Z,2504.00
2022-08-05T08:21:02.004Z,2638.00
2022-08-05T08:21:44.564Z,2499.00
2022-08-05T08:22:44.561Z,2663.00
2022-08-05T08:24:02.532Z,2885.00
2022-08-05T08:24:51.991Z,3105.00
2022-08-05T08:26:00.808Z,3246.00
2022-08-05T08:26:44.543Z,3243.00
2022-08-05T08:27:47.329Z,2861.00
2022-08-05T08:28:59.120Z,1728.00
2022-08-05T08:30:05.038Z,1895.00
2022-08-05T08:30:48.012Z,2423.00
2022-08-05T08:31:44.491Z,2535.00
2022-08-05T08:32:44.481Z,3043.00
2022-08-05T08:33:44.488Z,3201.00
2022-08-05T08:34:44.482Z,3398.00
2022-08-05T08:35:53.137Z,3351.00
2022-08-05T08:36:47.595Z,4532.00
2022-08-05T08:37:45.152Z,3831.00
2022-08-05T08:38:44.613Z,3026.00
2022-08-05T08:39:49.670Z,3055.00
2022-08-05T08:40:51.428Z,3388.00
2022-08-05T08:41:52.496Z,3919.00
2022-08-05T08:42:52.466Z,5150.00
2022-08-05T08:45:16.265Z,5750.00
2022-08-05T08:45:16.465Z,5681.00
2022-08-05T08:45:44.420Z,4921.00
2022-08-05T08:46:44.390Z,5455.00
2022-08-05T08:48:06.884Z,5156.00
2022-08-05T08:49:07.533Z,5786.00
2022-08-05T08:50:07.632Z,5800.00
2022-08-05T08:51:03.334Z,5461.00
2022-08-05T08:52:04.360Z,6546.00
2022-08-05T08:52:47.385Z,5596.00
2022-08-05T08:53:45.389Z,4571.00
2022-08-05T08:54:44.614Z,4926.00
2022-08-05T08:56:04.801Z,4817.00
2022-08-05T08:56:47.825Z,4011.00
2022-08-05T08:57:58.021Z,4407.00
2022-08-05T08:58:48.620Z,4537.00
2022-08-05T08:59:47.428Z,4065.00
2022-08-05T09:00:44.717Z,4098.00
2022-08-05T09:01:44.314Z,3917.00
2022-08-05T09:02:44.289Z,3525.00
2022-08-05T09:03:45.326Z,4773.00
2022-08-05T09:04:57.922Z,4287.00
2022-08-05T09:06:09.247Z,4124.00
2022-08-05T09:06:44.519Z,4015.00
2022-08-05T09:07:56.740Z,3721.00
2022-08-05T09:08:44.338Z,3952.00
2022-08-05T09:09:44.250Z,3931.00
2022-08-05T09:10:46.722Z,2889.00
2022-08-05T09:11:51.698Z,2349.00
2022-08-05T09:12:44.369Z,3769.00
2022-08-05T09:14:00.816Z,3472.00
2022-08-05T09:14:56.508Z,4689.00
2022-08-05T09:15:44.218Z,5986.00
2022-08-05T09:16:48.629Z,8179.00
2022-08-05T09:17:49.449Z,9110.00
2022-08-05T09:18:44.649Z,6795.00
2022-08-05T09:20:01.551Z,9774.00
2022-08-05T09:20:44.747Z,8920.00
2022-08-05T09:22:17.911Z,7099.00
2022-08-05T09:22:45.218Z,6993.00
2022-08-05T09:23:44.172Z,5756.00
2022-08-05T09:24:44.137Z,4636.00
2022-08-05T09:26:01.668Z,3646.00
2022-08-05T09:26:44.175Z,3049.00
2022-08-05T09:28:04.307Z,6305.00
2022-08-05T09:28:44.106Z,3493.00
2022-08-05T09:29:47.537Z,4630.00
2022-08-05T09:30:44.097Z,4289.00
2022-08-05T09:32:43.005Z,4021.00
2022-08-05T09:32:46.740Z,4111.00
2022-08-05T09:33:44.076Z,3301.00
2022-08-05T09:34:44.068Z,2650.00
2022-08-05T09:35:44.068Z,5847.00
2022-08-05T09:36:54.382Z,6190.00
2022-08-05T09:38:12.749Z,5643.00
2022-08-05T09:38:44.054Z,6115.00
2022-08-05T09:39:45.400Z,6146.00
2022-08-05T09:40:51.857Z,6717.00
2022-08-05T09:41:44.028Z,5612.00
2022-08-05T09:42:44.036Z,5454.00
2022-08-05T09:43:44.015Z,4969.00
2022-08-05T09:44:44.015Z,6506.00
2022-08-05T09:46:06.525Z,6159.00
2022-08-05T09:46:51.733Z,5248.00
2022-08-05T09:47:55.059Z,6125.00
2022-08-05T09:49:07.255Z,6948.00
2022-08-05T09:50:00.559Z,5377.00
2022-08-05T09:50:45.260Z,4343.00
2022-08-05T09:51:44.924Z,2714.00
2022-08-05T09:52:44.967Z,3207.00
2022-08-05T09:53:53.259Z,2774.00
2022-08-05T09:54:43.927Z,3688.00
2022-08-05T09:55:57.495Z,7628.00
2022-08-05T09:56:48.342Z,6611.00
2022-08-05T09:57:43.935Z,4033.00
2022-08-05T09:58:43.894Z,5363.00
2022-08-05T09:59:43.938Z,5394.00
2022-08-05T10:00:43.915Z,3733.00
2022-08-05T10:01:45.837Z,3532.00
2022-08-05T10:02:43.971Z,3158.00
2022-08-05T10:03:58.500Z,2745.00
2022-08-05T10:04:43.873Z,2467.00
2022-08-05T10:05:44.144Z,1659.00
2022-08-05T10:06:54.742Z,1290.00
2022-08-05T10:08:10.843Z,4463.00
2022-08-05T10:08:50.364Z,3209.00
2022-08-05T10:09:45.328Z,6551.00
2022-08-05T10:10:43.813Z,6258.00
2022-08-05T10:11:43.823Z,7243.00
2022-08-05T10:12:49.760Z,8739.00
2022-08-05T10:13:47.222Z,9379.00
2022-08-05T10:14:43.801Z,6823.00
2022-08-05T10:15:43.800Z,5346.00
2022-08-05T10:16:53.143Z,9029.00
2022-08-05T10:17:47.438Z,6632.00
2022-08-05T10:18:43.761Z,4954.00
2022-08-05T10:20:04.375Z,3805.00
2022-08-05T10:20:44.196Z,4274.00
2022-08-05T10:21:43.760Z,5223.00
2022-08-05T10:22:50.963Z,8449.00
2022-08-05T10:23:59.208Z,8893.00
2022-08-05T10:24:43.732Z,9459.00
2022-08-05T10:25:43.725Z,9883.00
2022-08-05T10:26:51.459Z,8181.00
2022-08-05T10:28:09.728Z,10046.00
2022-08-05T10:28:43.906Z,11305.00
2022-08-05T10:30:40.952Z,9381.00
2022-08-05T10:32:48.045Z,7412.00
2022-08-05T10:32:51.791Z,6124.00
2022-08-05T10:33:02.200Z,5298.00
2022-08-05T10:33:43.675Z,5711.00
2022-08-05T10:34:43.661Z,5536.00
2022-08-05T10:35:44.177Z,4676.00
2022-08-05T10:36:43.672Z,3734.00
2022-08-05T10:37:45.076Z,3235.00
2022-08-05T10:38:45.008Z,4477.00
2022-08-05T10:40:03.789Z,7175.00
2022-08-05T10:40:45.060Z,4485.00
2022-08-05T10:41:45.340Z,2856.00
2022-08-05T10:42:43.656Z,5569.00
2022-08-05T10:43:44.009Z,6538.00
2022-08-05T10:44:43.908Z,7151.00
2022-08-05T10:45:44.044Z,8492.00
2022-08-05T10:46:43.599Z,10753.00
2022-08-05T10:47:56.086Z,12136.00
2022-08-05T10:48:56.445Z,10115.00
2022-08-05T10:49:49.060Z,8935.00
2022-08-05T10:50:44.360Z,8965.00
2022-08-05T10:51:59.942Z,9725.00
2022-08-05T10:52:49.413Z,10236.00
2022-08-05T10:53:45.302Z,10120.00
2022-08-05T10:54:46.921Z,9075.00
2022-08-05T10:56:03.639Z,7307.00
2022-08-05T10:56:43.561Z,5172.00
2022-08-05T10:57:44.795Z,3575.00
2022-08-05T10:58:48.638Z,3424.00
2022-08-05T11:00:03.354Z,4484.00
2022-08-05T11:00:44.115Z,6007.00
2022-08-05T11:02:04.686Z,8420.00
2022-08-05T11:02:50.518Z,8748.00
2022-08-05T11:03:43.575Z,7707.00
2022-08-05T11:04:43.498Z,8434.00
2022-08-05T11:05:43.513Z,9473.00
2022-08-05T11:06:43.456Z,9261.00
2022-08-05T11:08:02.619Z,7523.00
2022-08-05T11:08:43.729Z,5606.00
2022-08-05T11:09:46.355Z,4309.00
2022-08-05T11:10:50.079Z,3771.00
2022-08-05T11:11:53.013Z,3639.00
2022-08-05T11:12:45.465Z,4366.00
2022-08-05T11:13:57.938Z,6057.00
2022-08-05T11:15:11.468Z,8442.00
2022-08-05T11:16:00.303Z,9733.00
2022-08-05T11:16:56.153Z,9523.00
2022-08-05T11:17:57.318Z,10566.00
2022-08-05T11:18:43.587Z,11293.00
2022-08-05T11:20:17.625Z,10763.00
2022-08-05T11:20:44.275Z,9303.00
2022-08-05T11:21:49.110Z,8533.00
2022-08-05T11:22:44.227Z,10066.00
2022-08-05T11:24:05.129Z,10654.00
2022-08-05T11:24:50.659Z,8606.00
2022-08-05T11:26:05.970Z,8286.00
2022-08-05T11:26:49.765Z,12175.00
2022-08-05T11:27:51.301Z,13387.00
2022-08-05T11:28:43.627Z,13515.00
2022-08-05T11:29:43.314Z,13947.00
2022-08-05T11:30:43.301Z,13518.00
2022-08-05T11:31:57.800Z,12940.00
2022-08-05T11:32:43.274Z,12868.00
2022-08-05T11:33:46.683Z,11060.00
2022-08-05T11:34:51.709Z,9288.00
2022-08-05T11:36:02.798Z,10844.00
2022-08-05T11:36:43.235Z,13268.00
2022-08-05T11:38:29.987Z,12576.00
2022-08-05T11:38:51.010Z,10981.00
2022-08-05T11:39:43.302Z,9378.00
2022-08-05T11:40:43.216Z,8983.00
2022-08-05T11:42:01.673Z,7865.00
2022-08-05T11:42:43.205Z,10135.00
2022-08-05T11:44:04.841Z,11637.00
2022-08-05T11:44:53.393Z,13525.00
2022-08-05T11:46:15.480Z,12005.00
2022-08-05T11:46:58.225Z,11728.00
2022-08-05T11:47:49.027Z,9852.00
2022-08-05T11:48:43.184Z,12496.00
2022-08-05T11:49:43.309Z,14266.00
2022-08-05T11:50:43.161Z,14271.00
2022-08-05T11:51:43.742Z,12559.00
2022-08-05T11:52:44.129Z,11307.00
2022-08-05T11:53:43.132Z,12211.00
2022-08-05T11:54:43.625Z,12578.00
2022-08-05T11:55:43.132Z,12092.00
2022-08-05T11:56:43.113Z,11687.00
2022-08-05T11:58:08.085Z,10131.00
2022-08-05T11:58:43.094Z,9868.00
2022-08-05T11:59:50.313Z,10131.00
2022-08-05T12:00:44.449Z,9573.00
2022-08-05T12:01:43.100Z,8776.00
2022-08-05T12:02:43.087Z,9186.00
2022-08-05T12:03:43.093Z,5895.00
2022-08-05T12:04:43.119Z,4656.00
2022-08-05T12:05:43.605Z,12854.00
2022-08-05T12:06:48.915Z,14067.00
2022-08-05T12:08:08.620Z,13885.00
2022-08-05T12:08:49.971Z,15489.00
2022-08-05T12:09:53.372Z,13169.00
2022-08-05T12:10:45.837Z,13274.00
2022-08-05T12:11:43.011Z,12406.00
2022-08-05T12:12:59.942Z,11004.00
2022-08-05T12:13:48.361Z,12993.00
2022-08-05T12:14:43.253Z,18188.00
2022-08-05T12:15:43.009Z,23645.00
2022-08-05T12:16:45.482Z,14821.00
2022-08-05T12:18:03.652Z,15097.00
2022-08-05T12:18:52.466Z,27620.00
2022-08-05T12:20:25.724Z,26848.00
2022-08-05T12:20:42.981Z,16980.00
2022-08-05T12:21:42.954Z,19859.00
2022-08-05T12:22:42.941Z,20868.00
2022-08-05T12:23:43.454Z,18991.00
2022-08-05T12:24:43.612Z,19944.00
2022-08-05T12:25:42.920Z,20588.00
2022-08-05T12:26:43.969Z,19689.00
2022-08-05T12:27:52.757Z,18158.00
2022-08-05T12:28:42.900Z,18451.00
2022-08-05T12:29:42.921Z,16458.00